sensor_id;sensor_type;location;lat;lon;timestamp;P1;durP1;ratioP1;P2;durP2;ratioP2
21326;SDS011;10822;51.532;6.770;2024-03-08T00:00:02;26.40;;;17.70;;
21326;SDS011;10822;51.532;6.770;2024-03-08T00:02:54;23.63;;;15.70;;
21326;SDS011;10822;51.532;6.770;2024-03-08T00:05:20;27.85;;;16.85;;
21326;SDS011;10822;51.532;6.770;2024-03-08T00:07:46;24.30;;;15.88;;
21326;SDS011;10822;51.532;6.770;2024-03-08T00:10:12;23.88;;;15.80;;
21326;SDS011;10822;51.532;6.770;2024-03-08T00:12:39;24.98;;;16.23;;
21326;SDS011;10822;51.532;6.770;2024-03-08T00:15:07;25.13;;;16.20;;
21326;SDS011;10822;51.532;6.770;2024-03-08T00:17:34;25.38;;;17.00;;
21326;SDS011;10822;51.532;6.770;2024-03-08T00:20:00;25.85;;;16.60;;
21326;SDS011;10822;51.532;6.770;2024-03-08T00:22:28;23.73;;;16.30;;
21326;SDS011;10822;51.532;6.770;2024-03-08T00:24:55;26.00;;;17.05;;
21326;SDS011;10822;51.532;6.770;2024-03-08T00:27:21;22.27;;;15.40;;
21326;SDS011;10822;51.532;6.770;2024-03-08T00:29:47;26.00;;;16.23;;
21326;SDS011;10822;51.532;6.770;2024-03-08T00:32:13;24.80;;;16.30;;
21326;SDS011;10822;51.532;6.770;2024-03-08T00:34:39;26.67;;;16.27;;
21326;SDS011;10822;51.532;6.770;2024-03-08T00:37:05;28.15;;;15.90;;
21326;SDS011;10822;51.532;6.770;2024-03-08T00:39:31;26.52;;;17.50;;
21326;SDS011;10822;51.532;6.770;2024-03-08T00:41:57;26.77;;;16.40;;
21326;SDS011;10822;51.532;6.770;2024-03-08T00:44:23;24.35;;;16.08;;
21326;SDS011;10822;51.532;6.770;2024-03-08T00:46:49;24.17;;;17.00;;
21326;SDS011;10822;51.532;6.770;2024-03-08T00:49:16;23.70;;;16.38;;
21326;SDS011;10822;51.532;6.770;2024-03-08T00:51:42;26.45;;;17.33;;
21326;SDS011;10822;51.532;6.770;2024-03-08T00:54:08;25.52;;;17.08;;
21326;SDS011;10822;51.532;6.770;2024-03-08T00:56:34;27.35;;;17.15;;
21326;SDS011;10822;51.532;6.770;2024-03-08T00:59:01;22.85;;;15.73;;
21326;SDS011;10822;51.532;6.770;2024-03-08T01:01:27;26.55;;;17.90;;
21326;SDS011;10822;51.532;6.770;2024-03-08T01:03:53;28.08;;;17.92;;
21326;SDS011;10822;51.532;6.770;2024-03-08T01:06:19;25.33;;;17.10;;
21326;SDS011;10822;51.532;6.770;2024-03-08T01:08:46;26.98;;;17.27;;
21326;SDS011;10822;51.532;6.770;2024-03-08T01:11:15;28.05;;;18.67;;
21326;SDS011;10822;51.532;6.770;2024-03-08T01:13:42;25.02;;;18.10;;
21326;SDS011;10822;51.532;6.770;2024-03-08T01:16:08;27.30;;;18.00;;
21326;SDS011;10822;51.532;6.770;2024-03-08T01:18:34;26.67;;;17.85;;
21326;SDS011;10822;51.532;6.770;2024-03-08T01:21:00;26.42;;;17.10;;
21326;SDS011;10822;51.532;6.770;2024-03-08T01:23:26;25.20;;;16.95;;
21326;SDS011;10822;51.532;6.770;2024-03-08T01:25:52;28.13;;;17.75;;
21326;SDS011;10822;51.532;6.770;2024-03-08T01:28:22;27.13;;;16.95;;
21326;SDS011;10822;51.532;6.770;2024-03-08T01:30:48;28.50;;;17.42;;
21326;SDS011;10822;51.532;6.770;2024-03-08T01:33:20;26.95;;;17.95;;
21326;SDS011;10822;51.532;6.770;2024-03-08T01:35:47;28.48;;;18.42;;
21326;SDS011;10822;51.532;6.770;2024-03-08T01:38:13;26.80;;;17.40;;
21326;SDS011;10822;51.532;6.770;2024-03-08T01:40:40;26.23;;;17.42;;
21326;SDS011;10822;51.532;6.770;2024-03-08T01:43:17;29.95;;;18.65;;
21326;SDS011;10822;51.532;6.770;2024-03-08T01:45:43;27.58;;;18.13;;
21326;SDS011;10822;51.532;6.770;2024-03-08T01:48:09;27.95;;;18.58;;
21326;SDS011;10822;51.532;6.770;2024-03-08T01:50:35;26.55;;;17.58;;
21326;SDS011;10822;51.532;6.770;2024-03-08T01:53:02;29.13;;;19.40;;
21326;SDS011;10822;51.532;6.770;2024-03-08T01:55:28;25.80;;;18.38;;
21326;SDS011;10822;51.532;6.770;2024-03-08T01:57:54;26.77;;;17.90;;
21326;SDS011;10822;51.532;6.770;2024-03-08T02:00:20;27.33;;;17.88;;
21326;SDS011;10822;51.532;6.770;2024-03-08T02:02:47;30.08;;;19.10;;
21326;SDS011;10822;51.532;6.770;2024-03-08T02:05:15;27.67;;;18.13;;
21326;SDS011;10822;51.532;6.770;2024-03-08T02:07:41;28.65;;;19.08;;
21326;SDS011;10822;51.532;6.770;2024-03-08T02:10:10;28.02;;;19.13;;
21326;SDS011;10822;51.532;6.770;2024-03-08T02:12:37;27.27;;;18.55;;
21326;SDS011;10822;51.532;6.770;2024-03-08T02:15:03;28.10;;;18.60;;
21326;SDS011;10822;51.532;6.770;2024-03-08T02:17:31;28.02;;;18.77;;
21326;SDS011;10822;51.532;6.770;2024-03-08T02:19:58;28.08;;;19.00;;
21326;SDS011;10822;51.532;6.770;2024-03-08T02:22:26;31.30;;;18.63;;
21326;SDS011;10822;51.532;6.770;2024-03-08T02:24:52;29.65;;;18.13;;
21326;SDS011;10822;51.532;6.770;2024-03-08T02:27:23;30.05;;;18.58;;
21326;SDS011;10822;51.532;6.770;2024-03-08T02:29:49;28.42;;;18.63;;
21326;SDS011;10822;51.532;6.770;2024-03-08T02:32:16;28.75;;;18.73;;
21326;SDS011;10822;51.532;6.770;2024-03-08T02:34:43;30.25;;;18.75;;
21326;SDS011;10822;51.532;6.770;2024-03-08T02:37:09;31.40;;;19.25;;
21326;SDS011;10822;51.532;6.770;2024-03-08T02:39:35;30.27;;;19.10;;
21326;SDS011;10822;51.532;6.770;2024-03-08T02:42:01;27.80;;;18.35;;
21326;SDS011;10822;51.532;6.770;2024-03-08T02:44:27;28.60;;;18.60;;
21326;SDS011;10822;51.532;6.770;2024-03-08T02:46:53;31.27;;;18.98;;
21326;SDS011;10822;51.532;6.770;2024-03-08T02:49:20;33.42;;;19.13;;
21326;SDS011;10822;51.532;6.770;2024-03-08T02:51:46;30.00;;;19.48;;
21326;SDS011;10822;51.532;6.770;2024-03-08T02:54:12;29.17;;;19.13;;
21326;SDS011;10822;51.532;6.770;2024-03-08T02:56:38;30.88;;;19.38;;
21326;SDS011;10822;51.532;6.770;2024-03-08T02:59:04;32.00;;;19.55;;
21326;SDS011;10822;51.532;6.770;2024-03-08T03:01:30;30.50;;;19.02;;
21326;SDS011;10822;51.532;6.770;2024-03-08T03:03:57;29.85;;;19.27;;
21326;SDS011;10822;51.532;6.770;2024-03-08T03:06:23;31.05;;;18.92;;
21326;SDS011;10822;51.532;6.770;2024-03-08T03:08:49;27.58;;;18.20;;
21326;SDS011;10822;51.532;6.770;2024-03-08T03:11:16;30.80;;;17.75;;
21326;SDS011;10822;51.532;6.770;2024-03-08T03:13:42;28.67;;;18.92;;
21326;SDS011;10822;51.532;6.770;2024-03-08T03:16:16;27.70;;;18.92;;
21326;SDS011;10822;51.532;6.770;2024-03-08T03:18:43;31.70;;;18.27;;
21326;SDS011;10822;51.532;6.770;2024-03-08T03:21:10;30.10;;;18.77;;
21326;SDS011;10822;51.532;6.770;2024-03-08T03:23:37;30.98;;;19.63;;
21326;SDS011;10822;51.532;6.770;2024-03-08T03:26:04;31.30;;;19.27;;
21326;SDS011;10822;51.532;6.770;2024-03-08T03:28:32;29.42;;;19.70;;
21326;SDS011;10822;51.532;6.770;2024-03-08T03:30:58;28.98;;;19.48;;
21326;SDS011;10822;51.532;6.770;2024-03-08T03:33:24;29.92;;;18.52;;
21326;SDS011;10822;51.532;6.770;2024-03-08T03:35:50;31.90;;;19.42;;
21326;SDS011;10822;51.532;6.770;2024-03-08T03:38:19;30.33;;;19.17;;
21326;SDS011;10822;51.532;6.770;2024-03-08T03:40:48;33.05;;;19.83;;
21326;SDS011;10822;51.532;6.770;2024-03-08T03:43:17;32.90;;;19.85;;
21326;SDS011;10822;51.532;6.770;2024-03-08T03:45:43;31.20;;;18.58;;
21326;SDS011;10822;51.532;6.770;2024-03-08T03:48:09;31.58;;;19.17;;
21326;SDS011;10822;51.532;6.770;2024-03-08T03:50:35;31.23;;;19.40;;
21326;SDS011;10822;51.532;6.770;2024-03-08T03:53:02;32.90;;;19.35;;
21326;SDS011;10822;51.532;6.770;2024-03-08T03:55:28;34.30;;;19.30;;
21326;SDS011;10822;51.532;6.770;2024-03-08T03:57:54;32.50;;;19.90;;
21326;SDS011;10822;51.532;6.770;2024-03-08T04:00:20;29.05;;;18.48;;
21326;SDS011;10822;51.532;6.770;2024-03-08T04:02:46;32.35;;;20.05;;
21326;SDS011;10822;51.532;6.770;2024-03-08T04:05:12;34.97;;;19.80;;
21326;SDS011;10822;51.532;6.770;2024-03-08T04:07:39;29.92;;;18.77;;
21326;SDS011;10822;51.532;6.770;2024-03-08T04:10:05;31.95;;;20.67;;
21326;SDS011;10822;51.532;6.770;2024-03-08T04:12:32;29.20;;;19.55;;
21326;SDS011;10822;51.532;6.770;2024-03-08T04:14:58;29.25;;;18.75;;
21326;SDS011;10822;51.532;6.770;2024-03-08T04:17:24;32.95;;;19.35;;
21326;SDS011;10822;51.532;6.770;2024-03-08T04:19:51;34.17;;;20.25;;
21326;SDS011;10822;51.532;6.770;2024-03-08T04:22:17;32.83;;;20.42;;
21326;SDS011;10822;51.532;6.770;2024-03-08T04:24:43;33.58;;;19.55;;
21326;SDS011;10822;51.532;6.770;2024-03-08T04:27:10;30.92;;;19.38;;
21326;SDS011;10822;51.532;6.770;2024-03-08T04:29:36;30.15;;;18.65;;
21326;SDS011;10822;51.532;6.770;2024-03-08T04:32:03;31.63;;;20.52;;
21326;SDS011;10822;51.532;6.770;2024-03-08T04:34:29;34.40;;;19.13;;
21326;SDS011;10822;51.532;6.770;2024-03-08T04:36:57;34.47;;;19.73;;
21326;SDS011;10822;51.532;6.770;2024-03-08T04:39:23;33.50;;;20.08;;
21326;SDS011;10822;51.532;6.770;2024-03-08T04:41:49;32.70;;;19.50;;
21326;SDS011;10822;51.532;6.770;2024-03-08T04:44:15;33.28;;;19.83;;
21326;SDS011;10822;51.532;6.770;2024-03-08T04:46:42;33.35;;;19.35;;
21326;SDS011;10822;51.532;6.770;2024-03-08T04:49:09;34.97;;;19.85;;
21326;SDS011;10822;51.532;6.770;2024-03-08T04:51:36;32.47;;;19.73;;
21326;SDS011;10822;51.532;6.770;2024-03-08T04:54:02;33.30;;;20.45;;
21326;SDS011;10822;51.532;6.770;2024-03-08T04:56:29;32.80;;;20.38;;
21326;SDS011;10822;51.532;6.770;2024-03-08T04:58:56;36.17;;;20.95;;
21326;SDS011;10822;51.532;6.770;2024-03-08T05:01:22;33.13;;;20.52;;
21326;SDS011;10822;51.532;6.770;2024-03-08T05:03:48;35.08;;;20.25;;
21326;SDS011;10822;51.532;6.770;2024-03-08T05:06:15;32.65;;;19.92;;
21326;SDS011;10822;51.532;6.770;2024-03-08T05:08:41;32.88;;;19.85;;
21326;SDS011;10822;51.532;6.770;2024-03-08T05:11:07;36.20;;;21.02;;
21326;SDS011;10822;51.532;6.770;2024-03-08T05:13:34;32.13;;;20.50;;
21326;SDS011;10822;51.532;6.770;2024-03-08T05:16:00;32.70;;;21.00;;
21326;SDS011;10822;51.532;6.770;2024-03-08T05:18:26;32.40;;;20.20;;
21326;SDS011;10822;51.532;6.770;2024-03-08T05:20:57;33.97;;;20.75;;
21326;SDS011;10822;51.532;6.770;2024-03-08T05:23:23;33.15;;;20.55;;
21326;SDS011;10822;51.532;6.770;2024-03-08T05:25:49;33.90;;;20.27;;
21326;SDS011;10822;51.532;6.770;2024-03-08T05:28:15;33.83;;;20.63;;
21326;SDS011;10822;51.532;6.770;2024-03-08T05:30:41;32.78;;;20.60;;
21326;SDS011;10822;51.532;6.770;2024-03-08T05:33:07;34.40;;;20.63;;
21326;SDS011;10822;51.532;6.770;2024-03-08T05:35:36;34.78;;;21.00;;
21326;SDS011;10822;51.532;6.770;2024-03-08T05:38:02;34.67;;;21.90;;
21326;SDS011;10822;51.532;6.770;2024-03-08T05:40:28;34.17;;;20.80;;
21326;SDS011;10822;51.532;6.770;2024-03-08T05:42:57;37.05;;;21.05;;
21326;SDS011;10822;51.532;6.770;2024-03-08T05:45:24;33.50;;;21.00;;
21326;SDS011;10822;51.532;6.770;2024-03-08T05:47:50;35.25;;;20.40;;
21326;SDS011;10822;51.532;6.770;2024-03-08T05:50:16;35.58;;;22.30;;
21326;SDS011;10822;51.532;6.770;2024-03-08T05:52:43;36.75;;;21.48;;
21326;SDS011;10822;51.532;6.770;2024-03-08T05:55:09;37.78;;;22.02;;
21326;SDS011;10822;51.532;6.770;2024-03-08T05:57:35;35.72;;;21.40;;
21326;SDS011;10822;51.532;6.770;2024-03-08T06:00:05;34.30;;;21.17;;
21326;SDS011;10822;51.532;6.770;2024-03-08T06:02:31;37.67;;;21.63;;
21326;SDS011;10822;51.532;6.770;2024-03-08T06:04:57;33.85;;;20.45;;
21326;SDS011;10822;51.532;6.770;2024-03-08T06:07:23;36.72;;;21.45;;
21326;SDS011;10822;51.532;6.770;2024-03-08T06:09:49;37.40;;;21.52;;
21326;SDS011;10822;51.532;6.770;2024-03-08T06:12:15;37.03;;;22.25;;
21326;SDS011;10822;51.532;6.770;2024-03-08T06:14:44;36.38;;;22.05;;
21326;SDS011;10822;51.532;6.770;2024-03-08T06:17:10;33.80;;;20.88;;
21326;SDS011;10822;51.532;6.770;2024-03-08T06:19:36;36.72;;;21.52;;
21326;SDS011;10822;51.532;6.770;2024-03-08T06:22:02;34.28;;;21.42;;
21326;SDS011;10822;51.532;6.770;2024-03-08T06:24:31;37.42;;;21.38;;
21326;SDS011;10822;51.532;6.770;2024-03-08T06:26:57;37.95;;;21.05;;
21326;SDS011;10822;51.532;6.770;2024-03-08T06:29:23;35.97;;;21.58;;
21326;SDS011;10822;51.532;6.770;2024-03-08T06:31:49;35.30;;;20.65;;
21326;SDS011;10822;51.532;6.770;2024-03-08T06:34:15;34.58;;;20.55;;
21326;SDS011;10822;51.532;6.770;2024-03-08T06:36:43;36.55;;;22.33;;
21326;SDS011;10822;51.532;6.770;2024-03-08T06:39:09;38.45;;;21.60;;
21326;SDS011;10822;51.532;6.770;2024-03-08T06:41:38;37.90;;;22.23;;
21326;SDS011;10822;51.532;6.770;2024-03-08T06:44:04;37.70;;;22.35;;
21326;SDS011;10822;51.532;6.770;2024-03-08T06:46:32;37.83;;;22.65;;
21326;SDS011;10822;51.532;6.770;2024-03-08T06:48:58;36.28;;;22.42;;
21326;SDS011;10822;51.532;6.770;2024-03-08T06:51:24;33.83;;;20.50;;
21326;SDS011;10822;51.532;6.770;2024-03-08T06:53:50;39.20;;;22.08;;
21326;SDS011;10822;51.532;6.770;2024-03-08T06:56:18;38.45;;;21.65;;
21326;SDS011;10822;51.532;6.770;2024-03-08T06:58:44;37.85;;;21.75;;
21326;SDS011;10822;51.532;6.770;2024-03-08T07:01:10;33.25;;;20.88;;
21326;SDS011;10822;51.532;6.770;2024-03-08T07:03:39;35.67;;;21.52;;
21326;SDS011;10822;51.532;6.770;2024-03-08T07:06:09;35.13;;;21.52;;
21326;SDS011;10822;51.532;6.770;2024-03-08T07:08:35;32.60;;;20.17;;
21326;SDS011;10822;51.532;6.770;2024-03-08T07:11:01;32.88;;;20.52;;
21326;SDS011;10822;51.532;6.770;2024-03-08T07:13:28;31.40;;;19.65;;
21326;SDS011;10822;51.532;6.770;2024-03-08T07:15:54;30.38;;;19.23;;
21326;SDS011;10822;51.532;6.770;2024-03-08T07:18:20;30.15;;;19.70;;
21326;SDS011;10822;51.532;6.770;2024-03-08T07:20:47;32.15;;;18.48;;
21326;SDS011;10822;51.532;6.770;2024-03-08T07:23:14;28.45;;;19.27;;
21326;SDS011;10822;51.532;6.770;2024-03-08T07:26:00;30.35;;;19.33;;
21326;SDS011;10822;51.532;6.770;2024-03-08T07:28:26;30.98;;;19.95;;
21326;SDS011;10822;51.532;6.770;2024-03-08T07:30:52;29.38;;;19.92;;
21326;SDS011;10822;51.532;6.770;2024-03-08T07:33:27;31.88;;;19.85;;
21326;SDS011;10822;51.532;6.770;2024-03-08T07:35:53;29.42;;;19.92;;
21326;SDS011;10822;51.532;6.770;2024-03-08T07:38:19;29.38;;;19.83;;
21326;SDS011;10822;51.532;6.770;2024-03-08T07:40:46;28.00;;;19.13;;
21326;SDS011;10822;51.532;6.770;2024-03-08T07:43:13;28.65;;;19.58;;
21326;SDS011;10822;51.532;6.770;2024-03-08T07:45:39;27.77;;;19.45;;
21326;SDS011;10822;51.532;6.770;2024-03-08T07:48:05;30.17;;;18.85;;
21326;SDS011;10822;51.532;6.770;2024-03-08T07:53:09;27.20;;;18.27;;
21326;SDS011;10822;51.532;6.770;2024-03-08T07:55:35;28.27;;;19.20;;
21326;SDS011;10822;51.532;6.770;2024-03-08T07:58:02;30.23;;;19.15;;
21326;SDS011;10822;51.532;6.770;2024-03-08T08:00:29;30.52;;;19.52;;
21326;SDS011;10822;51.532;6.770;2024-03-08T08:02:56;28.10;;;19.80;;
21326;SDS011;10822;51.532;6.770;2024-03-08T08:05:22;27.63;;;18.70;;
21326;SDS011;10822;51.532;6.770;2024-03-08T08:07:48;25.55;;;18.42;;
21326;SDS011;10822;51.532;6.770;2024-03-08T08:10:14;26.42;;;18.65;;
21326;SDS011;10822;51.532;6.770;2024-03-08T08:12:46;29.02;;;18.67;;
21326;SDS011;10822;51.532;6.770;2024-03-08T08:15:13;28.65;;;18.52;;
21326;SDS011;10822;51.532;6.770;2024-03-08T08:17:40;28.13;;;19.00;;
21326;SDS011;10822;51.532;6.770;2024-03-08T08:20:06;28.42;;;18.65;;
21326;SDS011;10822;51.532;6.770;2024-03-08T08:22:32;26.05;;;18.02;;
21326;SDS011;10822;51.532;6.770;2024-03-08T08:24:58;27.33;;;18.80;;
21326;SDS011;10822;51.532;6.770;2024-03-08T08:27:24;27.77;;;19.00;;
21326;SDS011;10822;51.532;6.770;2024-03-08T08:29:51;28.83;;;18.63;;
21326;SDS011;10822;51.532;6.770;2024-03-08T08:32:17;27.40;;;19.23;;
21326;SDS011;10822;51.532;6.770;2024-03-08T08:34:43;29.52;;;19.77;;
21326;SDS011;10822;51.532;6.770;2024-03-08T08:37:09;28.35;;;18.42;;
21326;SDS011;10822;51.532;6.770;2024-03-08T08:39:35;26.40;;;17.95;;
21326;SDS011;10822;51.532;6.770;2024-03-08T08:42:02;26.63;;;17.73;;
21326;SDS011;10822;51.532;6.770;2024-03-08T08:44:29;29.35;;;19.45;;
21326;SDS011;10822;51.532;6.770;2024-03-08T08:46:56;25.63;;;18.45;;
21326;SDS011;10822;51.532;6.770;2024-03-08T08:49:22;27.27;;;18.55;;
21326;SDS011;10822;51.532;6.770;2024-03-08T08:51:49;29.38;;;19.17;;
21326;SDS011;10822;51.532;6.770;2024-03-08T08:54:15;26.10;;;17.52;;
21326;SDS011;10822;51.532;6.770;2024-03-08T08:56:42;27.33;;;18.90;;
21326;SDS011;10822;51.532;6.770;2024-03-08T08:59:12;27.77;;;18.52;;
21326;SDS011;10822;51.532;6.770;2024-03-08T09:01:44;24.45;;;17.75;;
21326;SDS011;10822;51.532;6.770;2024-03-08T09:04:12;27.13;;;18.52;;
21326;SDS011;10822;51.532;6.770;2024-03-08T09:06:38;24.35;;;16.63;;
21326;SDS011;10822;51.532;6.770;2024-03-08T09:09:06;26.35;;;18.35;;
21326;SDS011;10822;51.532;6.770;2024-03-08T09:11:36;28.60;;;18.42;;
21326;SDS011;10822;51.532;6.770;2024-03-08T09:14:06;25.05;;;17.73;;
21326;SDS011;10822;51.532;6.770;2024-03-08T09:16:32;27.65;;;17.90;;
21326;SDS011;10822;51.532;6.770;2024-03-08T09:18:58;25.38;;;17.77;;
21326;SDS011;10822;51.532;6.770;2024-03-08T09:21:24;25.70;;;16.88;;
21326;SDS011;10822;51.532;6.770;2024-03-08T09:23:52;22.58;;;16.77;;
21326;SDS011;10822;51.532;6.770;2024-03-08T09:26:18;25.58;;;18.20;;
21326;SDS011;10822;51.532;6.770;2024-03-08T09:28:44;25.00;;;17.42;;
21326;SDS011;10822;51.532;6.770;2024-03-08T09:31:11;24.38;;;16.98;;
21326;SDS011;10822;51.532;6.770;2024-03-08T09:33:37;25.30;;;16.67;;
21326;SDS011;10822;51.532;6.770;2024-03-08T09:36:04;23.55;;;16.33;;
21326;SDS011;10822;51.532;6.770;2024-03-08T09:38:30;22.08;;;16.98;;
21326;SDS011;10822;51.532;6.770;2024-03-08T09:40:56;27.02;;;17.05;;
21326;SDS011;10822;51.532;6.770;2024-03-08T09:43:23;23.88;;;16.58;;
21326;SDS011;10822;51.532;6.770;2024-03-08T09:45:49;24.85;;;16.25;;
21326;SDS011;10822;51.532;6.770;2024-03-08T09:48:16;24.23;;;17.02;;
21326;SDS011;10822;51.532;6.770;2024-03-08T09:50:44;23.40;;;14.82;;
21326;SDS011;10822;51.532;6.770;2024-03-08T09:53:13;22.27;;;16.20;;
21326;SDS011;10822;51.532;6.770;2024-03-08T09:55:39;22.85;;;15.80;;
21326;SDS011;10822;51.532;6.770;2024-03-08T09:58:11;24.63;;;16.77;;
21326;SDS011;10822;51.532;6.770;2024-03-08T10:00:46;23.58;;;15.85;;
21326;SDS011;10822;51.532;6.770;2024-03-08T10:03:12;21.95;;;16.02;;
21326;SDS011;10822;51.532;6.770;2024-03-08T10:05:39;26.67;;;17.15;;
21326;SDS011;10822;51.532;6.770;2024-03-08T10:08:05;22.58;;;16.40;;
21326;SDS011;10822;51.532;6.770;2024-03-08T10:10:33;23.02;;;16.02;;
21326;SDS011;10822;51.532;6.770;2024-03-08T10:12:59;23.80;;;16.88;;
21326;SDS011;10822;51.532;6.770;2024-03-08T10:15:26;23.60;;;16.58;;
21326;SDS011;10822;51.532;6.770;2024-03-08T10:20:23;22.35;;;15.07;;
21326;SDS011;10822;51.532;6.770;2024-03-08T10:22:51;24.30;;;14.90;;
21326;SDS011;10822;51.532;6.770;2024-03-08T10:25:18;20.60;;;15.68;;
21326;SDS011;10822;51.532;6.770;2024-03-08T10:27:44;21.83;;;15.30;;
21326;SDS011;10822;51.532;6.770;2024-03-08T10:30:15;22.48;;;15.98;;
21326;SDS011;10822;51.532;6.770;2024-03-08T10:32:44;23.63;;;16.20;;
21326;SDS011;10822;51.532;6.770;2024-03-08T10:35:11;23.88;;;16.27;;
21326;SDS011;10822;51.532;6.770;2024-03-08T10:37:47;21.55;;;15.30;;
21326;SDS011;10822;51.532;6.770;2024-03-08T10:40:16;21.92;;;15.45;;
21326;SDS011;10822;51.532;6.770;2024-03-08T10:42:56;21.30;;;15.07;;
21326;SDS011;10822;51.532;6.770;2024-03-08T10:45:26;24.00;;;15.20;;
21326;SDS011;10822;51.532;6.770;2024-03-08T10:48:02;21.55;;;15.18;;
21326;SDS011;10822;51.532;6.770;2024-03-08T10:50:30;21.15;;;15.40;;
21326;SDS011;10822;51.532;6.770;2024-03-08T10:52:59;23.30;;;15.88;;
21326;SDS011;10822;51.532;6.770;2024-03-08T10:55:26;20.23;;;14.63;;
21326;SDS011;10822;51.532;6.770;2024-03-08T10:57:53;22.13;;;15.27;;
21326;SDS011;10822;51.532;6.770;2024-03-08T11:00:19;23.63;;;16.08;;
21326;SDS011;10822;51.532;6.770;2024-03-08T11:02:51;20.27;;;15.02;;
21326;SDS011;10822;51.532;6.770;2024-03-08T11:05:37;22.35;;;14.98;;
21326;SDS011;10822;51.532;6.770;2024-03-08T11:08:19;20.85;;;14.88;;
21326;SDS011;10822;51.532;6.770;2024-03-08T11:10:51;23.33;;;15.43;;
21326;SDS011;10822;51.532;6.770;2024-03-08T11:16:07;21.38;;;15.60;;
21326;SDS011;10822;51.532;6.770;2024-03-08T11:18:34;21.27;;;15.57;;
21326;SDS011;10822;51.532;6.770;2024-03-08T11:21:04;22.88;;;15.57;;
21326;SDS011;10822;51.532;6.770;2024-03-08T11:23:31;21.15;;;14.60;;
21326;SDS011;10822;51.532;6.770;2024-03-08T11:25:58;21.25;;;15.10;;
21326;SDS011;10822;51.532;6.770;2024-03-08T11:28:25;19.58;;;15.05;;
21326;SDS011;10822;51.532;6.770;2024-03-08T11:33:24;18.88;;;14.30;;
21326;SDS011;10822;51.532;6.770;2024-03-08T11:35:50;22.25;;;15.98;;
21326;SDS011;10822;51.532;6.770;2024-03-08T11:38:16;22.83;;;15.15;;
21326;SDS011;10822;51.532;6.770;2024-03-08T11:40:44;23.13;;;15.02;;
21326;SDS011;10822;51.532;6.770;2024-03-08T11:43:15;23.85;;;15.60;;
21326;SDS011;10822;51.532;6.770;2024-03-08T11:45:41;21.08;;;15.13;;
21326;SDS011;10822;51.532;6.770;2024-03-08T11:48:07;20.83;;;15.60;;
21326;SDS011;10822;51.532;6.770;2024-03-08T11:50:33;24.52;;;16.25;;
21326;SDS011;10822;51.532;6.770;2024-03-08T11:53:03;20.95;;;15.25;;
21326;SDS011;10822;51.532;6.770;2024-03-08T11:55:30;23.45;;;15.77;;
21326;SDS011;10822;51.532;6.770;2024-03-08T11:58:03;20.30;;;15.00;;
21326;SDS011;10822;51.532;6.770;2024-03-08T12:00:29;21.10;;;15.43;;
21326;SDS011;10822;51.532;6.770;2024-03-08T12:03:07;19.00;;;14.88;;
21326;SDS011;10822;51.532;6.770;2024-03-08T12:05:34;20.95;;;15.38;;
21326;SDS011;10822;51.532;6.770;2024-03-08T12:08:02;21.83;;;15.70;;
21326;SDS011;10822;51.532;6.770;2024-03-08T12:10:30;20.80;;;15.02;;
21326;SDS011;10822;51.532;6.770;2024-03-08T12:12:57;20.52;;;15.02;;
21326;SDS011;10822;51.532;6.770;2024-03-08T12:15:28;19.10;;;14.70;;
21326;SDS011;10822;51.532;6.770;2024-03-08T12:17:54;21.92;;;15.38;;
21326;SDS011;10822;51.532;6.770;2024-03-08T12:20:21;20.80;;;14.65;;
21326;SDS011;10822;51.532;6.770;2024-03-08T12:22:48;20.05;;;14.65;;
21326;SDS011;10822;51.532;6.770;2024-03-08T12:25:14;23.75;;;15.98;;
21326;SDS011;10822;51.532;6.770;2024-03-08T12:27:41;21.77;;;14.82;;
21326;SDS011;10822;51.532;6.770;2024-03-08T12:32:55;20.50;;;14.68;;
21326;SDS011;10822;51.532;6.770;2024-03-08T12:35:24;21.48;;;13.98;;
21326;SDS011;10822;51.532;6.770;2024-03-08T12:37:54;19.85;;;14.18;;
21326;SDS011;10822;51.532;6.770;2024-03-08T12:45:20;21.02;;;14.38;;
21326;SDS011;10822;51.532;6.770;2024-03-08T12:47:48;21.08;;;14.40;;
21326;SDS011;10822;51.532;6.770;2024-03-08T12:50:14;21.75;;;14.20;;
21326;SDS011;10822;51.532;6.770;2024-03-08T12:52:42;20.75;;;14.80;;
21326;SDS011;10822;51.532;6.770;2024-03-08T12:55:08;22.23;;;14.25;;
21326;SDS011;10822;51.532;6.770;2024-03-08T12:57:35;20.67;;;14.73;;
21326;SDS011;10822;51.532;6.770;2024-03-08T13:00:02;20.30;;;14.20;;
21326;SDS011;10822;51.532;6.770;2024-03-08T13:02:29;19.02;;;13.02;;
21326;SDS011;10822;51.532;6.770;2024-03-08T13:04:57;19.27;;;13.02;;
21326;SDS011;10822;51.532;6.770;2024-03-08T13:07:23;18.55;;;13.23;;
21326;SDS011;10822;51.532;6.770;2024-03-08T13:09:51;17.85;;;12.55;;
21326;SDS011;10822;51.532;6.770;2024-03-08T13:12:18;18.17;;;13.25;;
21326;SDS011;10822;51.532;6.770;2024-03-08T13:14:45;18.27;;;13.00;;
21326;SDS011;10822;51.532;6.770;2024-03-08T13:17:11;17.02;;;11.85;;
21326;SDS011;10822;51.532;6.770;2024-03-08T13:19:38;18.23;;;11.98;;
21326;SDS011;10822;51.532;6.770;2024-03-08T13:22:04;19.08;;;12.98;;
21326;SDS011;10822;51.532;6.770;2024-03-08T13:24:31;17.45;;;12.65;;
21326;SDS011;10822;51.532;6.770;2024-03-08T13:26:57;18.42;;;12.77;;
21326;SDS011;10822;51.532;6.770;2024-03-08T13:29:24;16.63;;;12.30;;
21326;SDS011;10822;51.532;6.770;2024-03-08T13:31:50;17.55;;;11.93;;
21326;SDS011;10822;51.532;6.770;2024-03-08T13:34:18;15.35;;;11.32;;
21326;SDS011;10822;51.532;6.770;2024-03-08T13:36:52;19.23;;;11.98;;
21326;SDS011;10822;51.532;6.770;2024-03-08T13:39:19;17.65;;;11.65;;
21326;SDS011;10822;51.532;6.770;2024-03-08T13:41:46;15.00;;;10.77;;
21326;SDS011;10822;51.532;6.770;2024-03-08T13:44:12;15.60;;;10.80;;
21326;SDS011;10822;51.532;6.770;2024-03-08T13:46:38;15.23;;;10.20;;
21326;SDS011;10822;51.532;6.770;2024-03-08T13:49:05;13.15;;;9.50;;
21326;SDS011;10822;51.532;6.770;2024-03-08T13:51:33;13.73;;;10.02;;
21326;SDS011;10822;51.532;6.770;2024-03-08T13:53:59;16.05;;;9.85;;
21326;SDS011;10822;51.532;6.770;2024-03-08T13:56:25;11.85;;;8.13;;
21326;SDS011;10822;51.532;6.770;2024-03-08T13:58:51;10.35;;;7.95;;
21326;SDS011;10822;51.532;6.770;2024-03-08T14:01:17;9.48;;;6.70;;
21326;SDS011;10822;51.532;6.770;2024-03-08T14:03:43;9.27;;;6.38;;
21326;SDS011;10822;51.532;6.770;2024-03-08T14:06:10;9.45;;;6.88;;
21326;SDS011;10822;51.532;6.770;2024-03-08T14:08:37;10.50;;;6.88;;
21326;SDS011;10822;51.532;6.770;2024-03-08T14:11:04;9.88;;;6.72;;
21326;SDS011;10822;51.532;6.770;2024-03-08T14:13:42;9.80;;;6.90;;
21326;SDS011;10822;51.532;6.770;2024-03-08T14:16:11;11.02;;;7.60;;
21326;SDS011;10822;51.532;6.770;2024-03-08T14:18:37;9.55;;;6.43;;
21326;SDS011;10822;51.532;6.770;2024-03-08T14:21:04;10.30;;;7.07;;
21326;SDS011;10822;51.532;6.770;2024-03-08T14:23:30;10.95;;;7.53;;
21326;SDS011;10822;51.532;6.770;2024-03-08T14:25:57;12.30;;;8.35;;
21326;SDS011;10822;51.532;6.770;2024-03-08T14:28:24;12.35;;;7.57;;
21326;SDS011;10822;51.532;6.770;2024-03-08T14:30:52;10.90;;;7.40;;
21326;SDS011;10822;51.532;6.770;2024-03-08T14:33:18;10.75;;;7.57;;
21326;SDS011;10822;51.532;6.770;2024-03-08T14:35:44;10.50;;;7.88;;
21326;SDS011;10822;51.532;6.770;2024-03-08T14:38:12;11.80;;;8.45;;
21326;SDS011;10822;51.532;6.770;2024-03-08T14:40:38;12.32;;;9.18;;